AOPA News

Information der AOPA Österreich zur Frequenzumstellung auf 8,33kHz Raster
Die AOPA Österreich hat mit dem zuständigen Verkehrsministerium und der Austro Control Kontakt aufgenommen um zu eruieren, wie die Umstellung auf 8,33kHz Raster nunmehr durchgeführt wird. Dabei hat uns das Verkehrsministerium mitgeteilt, dass aufgrund der Frequenznutzungsverordnung, also der gesetzlichen Vorgaben, eine Verlängerung der Frist nicht möglich ist und daher ab 01.01.2018 die Verpflichtung besteht, für alle Funkgeräte sowohl in Flugzeugen als auch in Bodenstationen nur mehr auf der Frequenz mit einer 8,33kHz Rasterung zu betreiben. Flugzeuge müssen daher, sofern sie nicht im Luftraum E oder G unterwegs sind und das Funkgerät nicht eingeschaltet ist, über ein Funkgerät mit einer 8,33kHz Rasterung verfügen. Dies gilt für den nationalen Bereich. Bei Grenzüberflügen ist selbstverständlich ein 8,33-Gerät erforderlich. Es liegt daher nicht im Ermessen des Ministeriums oder der ACG, hier die Umsetzung über den 01.01.2018 hinaus zu verlängern, da es sich um eine verbindliche Vorgabe der EASA handelt. Auch den Ländern Schweiz, Deutschland, Tschechien und Polen wurde seitens der EASA keine Erlaubnis gegeben länger auf die Einführung des 8,33kHz Rasters zu verzichten. Wie die zuständigen Herren des Ministeriums mitteilen, sind die Flughäfen und auch der Großteil der Flugplätze in Österreich ab 01.01.2018 umgestellt. Auch nach Auskunft der Fernmeldebehörde sollte diese Umstellung an den Flugplätzen durchgeführt sein. Wie im Hintergrund zu vernehmen ist, wird wahrscheinlich in den ersten Monaten 2018 keine Bestrafung erfolgen, jedoch ist dies nicht als gesichert anzunehmen. Als Anmerkung sei noch hinzugefügt, dass in der AIP bei manchen Flugplätzen noch z.B. 118,60 angegeben ist, dies bedeutet aber, dass auch diese Frequenz bereits auf die Frequenz 118,600 umgestellt ist.

AOPA Letter Dezember/Jänner 2017/2018
Liebe Mitglieder! Ihr könnt den AOPA Letter 06/2017 hier herunterladen. Die Beiträge der AOPA Austria findet Ihr auf Seite 32. Viel Spaß beim Lesen!

Weihnachts-Special von Jeppesen für AOPA Mitglieder
Neue AOPA Mitglieder, die zwischen Dezember und April beitreten, erhalten von Jeppesen auf Wunsch die iPad App Mobile FliteDeck VFR Europa einmalig als "18 für 12" Angebot. Somit erhält man 18 Monate zum Preis von 12 Monaten. Das Angebot gilt für alle neuen AOPA-Mitglieder in Deutschland, Österreich und der Schweiz im genannten Zeitraum. Bestehende AOPA Mitglieder erhalten ein kostenloses Mobile FD VFR Trip Kit für Südafrika. Navigraph sponsert 10 kostenlose Jahresservice Pakete von Jeppesen Charts. Die ersten 10 Personen, die sich auf das Angebot der AOPA melden, erhalten jeweils ein Navigraph Charts Paket. Navigraph bietet Simulationslösungenfür verschiedene Plattformen an (www.navigraph.com). Um das Angebot zu nutzen schreiben sie bitte an office@aopa.at. Wir wünschen Ihnen ein frohes Weihnachtsfest und einen guten Rutsch in eine erfolgreiche Flugsaison 2018.

Aufzeichnung des Rusty Pilots Garmin Avionik Seminars
Liebe Mitglieder! Hier findet Ihr unsere Aufzeichnung des Garmin Avionik Seminars im November 2017. Mitwirkende: Fabian Kienzle - Garmin Bernd Steininger – RICOH (Videokonferenzsystem) Thomas Türkott – A1 Multitechnik (Backup Datenleitung) Niki Lemberger – RAINERS Hotel Gerald Menclik – Videoaufzeichnung und Produktion AOPA – Organisation, Unterstützung, …

AOPA Letter Oktober/November 2017
Liebe Mitglieder! Für Alle Die den Newsletter im November verpasst haben... Ihr könnt den AOPA Letter 05/2017 hier herunterladen. Der AOPA Letter Dezember/Januar ist in Kürze verfügbar.
Termine
Jänner 2018
01
MO
Neujahr
02
DI
03
MI
04
DO
05
FR
06
SA
Heilige drei Könige
07
SO
08
MO
09
DI
10
MI
11
DO
12
FR
13
SA
14
SO
15
MO
16
DI
17
MI
18
DO
19
FR
20
SA
21
SO
22
MO
23
DI
24
MI
25
DO
27
SA
28
SO
29
MO
30
DI
31
MI
Februar 2018
01
DO
02
FR
03
SA
04
SO
05
MO
06
DI
07
MI
08
DO
09
FR
10
SA
11
SO
Faschingsonntag
12
MO
Rosenmontag
13
DI
Faschingdienstag
14
MI
Aschermittwoch
15
DO
16
FR
17
SA
18
SO
19
MO
20
DI
21
MI
22
DO
23
FR
24
SA
25
SO
26
MO
27
DI
28
MI
März 2018
01
DO
04
SO
05
MO
06
DI
07
MI
08
DO
11
SO
12
MO
13
DI
14
MI
15
DO
18
SO
19
MO
St. Josef (K, St, T, V)
20
DI
21
MI
22
DO
23
FR
24
SA
25
SO
Palmsonntag
26
MO
27
DI
28
MI
29
DO
Gründonnerstag
30
FR
Karfreitag
31
SA
Ostersamstag
April 2018
01
SO
Ostersonntag
02
MO
Ostermontag
03
DI
04
MI
05
DO
06
FR
07
SA
08
SO
09
MO
10
DI
11
MI
12
DO
13
FR
14
SA
15
SO
16
MO
17
DI
22
SO
23
MO
24
DI
25
MI
26
DO
27
FR
28
SA
29
SO
30
MO
Mai 2018
01
DI
Staatsfeiertag
02
MI
03
DO
04
FR
St. Florian (OÖ)
05
SA
06
SO
07
MO
08
DI
09
MI
10
DO
Christi Himmelfahrt
11
FR
12
SA
13
SO
14
MO
15
DI
16
MI
17
DO
18
FR
19
SA
Pfingstsamstag
20
SO
Pfingstsonntag
21
MO
Pfingstmontag
22
DI
23
MI
24
DO
25
FR
26
SA
27
SO
28
MO
29
DI
30
MI
31
DO
Fronleichnam
Juni 2018
01
FR
02
SA
03
SO
04
MO
05
DI
06
MI
07
DO
08
FR
09
SA
10
SO
11
MO
12
DI
13
MI
14
DO
15
FR
16
SA
17
SO
18
MO
19
DI
20
MI
21
DO
22
FR
23
SA
24
SO
25
MO
26
DI
27
MI
28
DO
29
FR
30
SA
Juli 2018
01
SO
02
MO
03
DI
04
MI
05
DO
06
FR
07
SA
08
SO
09
MO
10
DI
11
MI
12
DO
13
FR
14
SA
15
SO
23
MO
24
DI
25
MI
26
DO
27
FR
28
SA
29
SO
30
MO
31
DI
Flugwetter

Quelle: https://aviationweather.gov

LOWG GRAZ (MIL/CIV)
LOWG 221720Z 05003KT 9999 FEW050 SCT060 BKN080 01/M03 Q1012 R17/19//95 NOSIG
2018-01-22T17:20:00Z
Temperatur: 1.0°C Taupunkt: -3.0°C Windrichtung: 50° Windgeschwindigkeit: 3kt
Sicht: 6.21SM/5.40NM/9.99km
Sky Cover: FEW, Wolkenbasis: 5000ft
Sky Cover: SCT, Wolkenbasis: 6000ft
Sky Cover: BKN, Wolkenbasis: 8000ft
QNH: 29.88hg / 1,012mb
Kategorie: VFR
TAF LOWG 221115Z 2212/2312 16006KT 9999 FEW050 BKN070 TX08/2312Z TNM02/2306Z

LOWI INNSBRUCK AIRPOR
LOWI 221720Z VRB02KT 5000 RA FEW003 SCT018 BKN028 01/01 Q1012 R08/19//95 TEMPO 3000
2018-01-22T17:20:00Z
Temperatur: 1.0°C Taupunkt: 1.0°C Windgeschwindigkeit: 2kt
Sicht: 3.11SM/2.70NM/5.01km
Niederschlag: RA
Sky Cover: FEW, Wolkenbasis: 300ft
Sky Cover: SCT, Wolkenbasis: 1800ft
Sky Cover: BKN, Wolkenbasis: 2800ft
QNH: 29.88hg / 1,012mb
Kategorie: MVFR
TAF LOWI 221115Z 2212/2312 27007KT 9999 -RA SCT020 BKN050 TX04/2312Z TN01/2223Z TEMPO 2212/2224 30010G20KT 3000 RA BKN015 PROB40 TEMPO 2212/2222 1500 RA BR VV005 BECMG 2222/2224 VRB02KT 1500 BCFG BKN005 PROB40 2302/2312 0300 FG VV002

LOWK KLAGENFURT(CIV/M
LOWK 221720Z 32002KT 9999 FEW050 SCT110 M00/M06 Q1012 NOSIG
2018-01-22T17:20:00Z
Temperatur: 0.0°C Taupunkt: -6.0°C Windrichtung: 320° Windgeschwindigkeit: 2kt
Sicht: 6.21SM/5.40NM/9.99km
Sky Cover: FEW, Wolkenbasis: 5000ft
Sky Cover: SCT, Wolkenbasis: 11000ft
QNH: 29.88hg / 1,012mb
Kategorie: VFR
TAF LOWK 221115Z 2212/2312 VRB02KT 9999 FEW050 SCT070 TX06/2312Z TNM02/2303Z

LOWL LINZ (CIV/MIL)
LOWL 221720Z AUTO 10003KT 070V160 4700 -FZRA BR FEW003 BKN004 M01/M02 Q1011 R08/690195 TEMPO 2000 BR SCT005 BKN009
2018-01-22T17:20:00Z
Temperatur: -1.0°C Taupunkt: -2.0°C Windrichtung: 100° Windgeschwindigkeit: 3kt
Sicht: 2.92SM/2.54NM/4.70km
Niederschlag: -FZRA BR
Sky Cover: FEW, Wolkenbasis: 300ft
Sky Cover: BKN, Wolkenbasis: 400ft
QNH: 29.85hg / 1,011mb
Kategorie: LIFR
TAF AMD LOWL 221612Z 2216/2312 08006KT 5000 BR SCT010 BKN030 TX04/2312Z TNM01/2216Z TEMPO 2216/2302 2000 RASN SCT003 BKN005 PROB30 TEMPO 2216/2218 FZRA BECMG 2300/2302 27010KT 9999 -RA SCT010 BKN020

LOWS SALZBURG AIRPORT
LOWS 221720Z 15009KT 7000 -RA FEW007 BKN035 01/01 Q1011 R15/29//95 TEMPO 4000 RA
2018-01-22T17:20:00Z
Temperatur: 1.0°C Taupunkt: 1.0°C Windrichtung: 150° Windgeschwindigkeit: 9kt
Sicht: 4.35SM/3.78NM/7.00km
Niederschlag: -RA
Sky Cover: FEW, Wolkenbasis: 700ft
Sky Cover: BKN, Wolkenbasis: 3500ft
QNH: 29.85hg / 1,011mb
Kategorie: MVFR
TAF LOWS 221115Z 2212/2312 15008KT 9999 -RA SCT015 BKN035 TX06/2216Z TN00/2212Z TEMPO 2212/2215 4000 RA BKN014 BECMG 2214/2216 29008KT TEMPO 2218/2308 29012G22KT 3500 SHRA SCT007 BKN014 PROB30 TEMPO 2303/2306 2500 RASN BKN007 BECMG 2308/2310 NSW

LOWW VIENNA/SCHWECHAT
LOWW 221720Z 14009KT 9999 -SHRASN FEW012 SCT015 BKN030 00/M02 Q1013 R88/19//95 NOSIG
2018-01-22T17:20:00Z
Temperatur: 0.0°C Taupunkt: -2.0°C Windrichtung: 140° Windgeschwindigkeit: 9kt
Sicht: 6.21SM/5.40NM/9.99km
Niederschlag: -SHRA -SHSN
Sky Cover: FEW, Wolkenbasis: 1200ft
Sky Cover: SCT, Wolkenbasis: 1500ft
Sky Cover: BKN, Wolkenbasis: 3000ft
QNH: 29.91hg / 1,013mb
Kategorie: MVFR
TAF LOWW 221115Z 2212/2318 14006KT CAVOK TX04/2315Z TNM00/2302Z BECMG 2216/2218 8000 -SN FEW010 BKN030 OVC070 TEMPO 2220/2303 2000 SN BKN008 OVC020 PROB30 TEMPO 2303/2306 1200 -FZRA BR BKN005 BECMG 2306/2308 32012KT 8000 -RA SCT010 BKN025 FM231600 21005KT 9999 BKN045

LOXZ ZELTWEG (MIL)
LOXZ 221720Z VRB01KT 10KM FEW020SC BKN060SC M02/M03 Q1011 NOSIG
2018-01-22T17:20:00Z
Temperatur: -2.0°C Taupunkt: -3.0°C Windgeschwindigkeit: 1kt
Sicht: 6.21SM/5.40NM/9.99km
QNH: 29.85hg / 1,011mb
TAF LOXZ 221415Z 2215/2224 VRB03KT 9999 FEW015 BKN050 TEMPO 2215/2224 27010KT 3000 -SHSN BR SCT009 OVC020 PROB30 TEMPO 2221/2224 -FZRASN

LOAN WR.NEUSTADT EAST
LOAN 221600Z 18005KT 2500 -SHSN SCT006ST BKN012ST
2018-01-22T16:00:00Z
Windrichtung: 180° Windgeschwindigkeit: 5kt
Sicht: 1.55SM/1.35NM/2.49km
Niederschlag: -SHSN
TAF AMD LOAN 221612Z 2216/2221 13005KT 9999 FEW020 SCT030 BKN100 TEMPO 2216/2218 2500 SN SCT006 BKN012

LOAV VOESLAU-KOTTINGB
LOAV 221600Z 12004KT 4000 BR SCT010ST BKN040SC 01/M02
2018-01-22T16:00:00Z
Temperatur: 1.0°C Taupunkt: -2.0°C Windrichtung: 120° Windgeschwindigkeit: 4kt
Sicht: 2.49SM/2.16NM/4.01km
Niederschlag: BR
TAF LOAV 221125Z 2212/2221 12005KT 9999 FEW030 SCT060 BKN100 BECMG 2216/2218 8000 -SN FEW010 BKN030 OVC060